sensor_id;sensor_type;location;lat;lon;timestamp;pressure;altitude;pressure_sealevel;temperature;humidity
52591;BME280;38483;42.620;25.394;2022-10-28T00:01:11;98319.59;;;12.56;60.88
52591;BME280;38483;42.620;25.394;2022-10-28T00:03:42;98321.53;;;12.49;61.62
52591;BME280;38483;42.620;25.394;2022-10-28T00:06:15;98312.75;;;12.53;61.30
52591;BME280;38483;42.620;25.394;2022-10-28T00:08:42;98319.53;;;12.57;60.97
52591;BME280;38483;42.620;25.394;2022-10-28T00:11:15;98322.47;;;12.48;60.74
52591;BME280;38483;42.620;25.394;2022-10-28T00:13:43;98318.34;;;12.41;61.36
52591;BME280;38483;42.620;25.394;2022-10-28T00:16:21;98317.50;;;12.41;61.52
52591;BME280;38483;42.620;25.394;2022-10-28T00:18:49;98308.56;;;12.49;60.84
52591;BME280;38483;42.620;25.394;2022-10-28T00:21:23;98310.63;;;12.40;61.10
52591;BME280;38483;42.620;25.394;2022-10-28T00:23:51;98313.66;;;12.26;61.27
52591;BME280;38483;42.620;25.394;2022-10-28T00:26:21;98307.34;;;12.07;62.26
52591;BME280;38483;42.620;25.394;2022-10-28T00:28:56;98301.03;;;12.15;62.31
52591;BME280;38483;42.620;25.394;2022-10-28T00:31:25;98305.03;;;12.25;62.35
52591;BME280;38483;42.620;25.394;2022-10-28T00:33:53;98306.69;;;12.26;61.99
52591;BME280;38483;42.620;25.394;2022-10-28T00:36:22;98321.63;;;12.20;62.27
52591;BME280;38483;42.620;25.394;2022-10-28T00:38:51;98314.56;;;11.70;63.13
52591;BME280;38483;42.620;25.394;2022-10-28T00:41:22;98313.84;;;11.03;65.93
52591;BME280;38483;42.620;25.394;2022-10-28T00:43:51;98315.72;;;10.98;66.61
52591;BME280;38483;42.620;25.394;2022-10-28T00:46:43;98301.06;;;10.97;66.42
52591;BME280;38483;42.620;25.394;2022-10-28T00:49:15;98313.59;;;10.82;67.23
52591;BME280;38483;42.620;25.394;2022-10-28T00:51:44;98314.19;;;10.59;68.09
52591;BME280;38483;42.620;25.394;2022-10-28T00:54:13;98313.50;;;10.51;68.95
52591;BME280;38483;42.620;25.394;2022-10-28T00:56:45;98315.31;;;10.47;69.22
52591;BME280;38483;42.620;25.394;2022-10-28T00:59:27;98305.66;;;10.54;68.85
52591;BME280;38483;42.620;25.394;2022-10-28T01:01:55;98306.09;;;10.37;69.64
52591;BME280;38483;42.620;25.394;2022-10-28T01:04:22;98313.81;;;10.39;69.88
52591;BME280;38483;42.620;25.394;2022-10-28T01:06:49;98300.28;;;10.28;70.52
52591;BME280;38483;42.620;25.394;2022-10-28T01:09:17;98309.59;;;10.35;70.66
52591;BME280;38483;42.620;25.394;2022-10-28T01:11:56;98296.81;;;10.29;70.45
52591;BME280;38483;42.620;25.394;2022-10-28T01:14:58;98305.38;;;10.31;70.95
52591;BME280;38483;42.620;25.394;2022-10-28T01:30:28;98296.66;;;10.69;70.25
52591;BME280;38483;42.620;25.394;2022-10-28T01:33:16;98287.84;;;10.76;69.54
52591;BME280;38483;42.620;25.394;2022-10-28T01:36:06;98282.66;;;10.76;69.71
52591;BME280;38483;42.620;25.394;2022-10-28T01:38:49;98291.47;;;10.69;69.99
52591;BME280;38483;42.620;25.394;2022-10-28T01:44:00;98287.06;;;10.72;69.99
52591;BME280;38483;42.620;25.394;2022-10-28T01:46:46;98293.78;;;10.79;69.63
52591;BME280;38483;42.620;25.394;2022-10-28T01:50:03;98300.19;;;10.98;69.13
52591;BME280;38483;42.620;25.394;2022-10-28T01:52:32;98302.31;;;11.13;68.63
52591;BME280;38483;42.620;25.394;2022-10-28T01:55:07;98301.97;;;11.25;67.82
52591;BME280;38483;42.620;25.394;2022-10-28T01:57:37;98306.88;;;11.36;67.69
52591;BME280;38483;42.620;25.394;2022-10-28T02:00:05;98306.44;;;11.51;66.50
52591;BME280;38483;42.620;25.394;2022-10-28T02:02:38;98291.72;;;11.52;66.40
52591;BME280;38483;42.620;25.394;2022-10-28T02:08:17;98297.56;;;11.58;65.56
52591;BME280;38483;42.620;25.394;2022-10-28T02:13:41;98307.13;;;11.56;66.43
52591;BME280;38483;42.620;25.394;2022-10-28T02:16:21;98303.78;;;11.53;65.75
52591;BME280;38483;42.620;25.394;2022-10-28T02:19:07;98301.44;;;11.45;65.25
52591;BME280;38483;42.620;25.394;2022-10-28T02:30:16;98302.22;;;11.18;66.85
52591;BME280;38483;42.620;25.394;2022-10-28T02:32:47;98295.47;;;11.11;67.03
52591;BME280;38483;42.620;25.394;2022-10-28T02:38:31;98306.91;;;10.73;68.33
52591;BME280;38483;42.620;25.394;2022-10-28T02:41:03;98304.97;;;10.47;69.49
52591;BME280;38483;42.620;25.394;2022-10-28T02:43:33;98302.19;;;10.21;70.26
52591;BME280;38483;42.620;25.394;2022-10-28T02:46:02;98303.94;;;10.19;70.56
52591;BME280;38483;42.620;25.394;2022-10-28T02:48:45;98314.97;;;10.27;70.35
52591;BME280;38483;42.620;25.394;2022-10-28T02:51:26;98309.34;;;10.09;71.08
52591;BME280;38483;42.620;25.394;2022-10-28T02:54:02;98318.25;;;9.96;71.73
52591;BME280;38483;42.620;25.394;2022-10-28T02:56:36;98313.22;;;9.90;72.08
52591;BME280;38483;42.620;25.394;2022-10-28T02:59:11;98304.75;;;9.84;71.81
52591;BME280;38483;42.620;25.394;2022-10-28T03:01:39;98309.69;;;9.94;72.36
52591;BME280;38483;42.620;25.394;2022-10-28T03:04:06;98310.66;;;9.90;72.09
52591;BME280;38483;42.620;25.394;2022-10-28T03:06:33;98308.81;;;9.95;72.03
52591;BME280;38483;42.620;25.394;2022-10-28T03:09:00;98309.25;;;9.76;72.24
52591;BME280;38483;42.620;25.394;2022-10-28T03:11:26;98326.63;;;9.70;73.18
52591;BME280;38483;42.620;25.394;2022-10-28T03:13:53;98321.50;;;9.68;73.66
52591;BME280;38483;42.620;25.394;2022-10-28T03:16:20;98316.28;;;9.70;73.53
52591;BME280;38483;42.620;25.394;2022-10-28T03:18:48;98327.66;;;9.61;74.11
52591;BME280;38483;42.620;25.394;2022-10-28T03:21:14;98326.94;;;9.55;74.56
52591;BME280;38483;42.620;25.394;2022-10-28T03:23:41;98324.19;;;9.62;74.17
52591;BME280;38483;42.620;25.394;2022-10-28T03:26:08;98321.81;;;9.53;74.38
52591;BME280;38483;42.620;25.394;2022-10-28T03:28:35;98330.03;;;9.72;74.39
52591;BME280;38483;42.620;25.394;2022-10-28T03:31:02;98329.31;;;9.65;75.01
52591;BME280;38483;42.620;25.394;2022-10-28T03:33:29;98322.50;;;9.61;74.65
52591;BME280;38483;42.620;25.394;2022-10-28T03:35:56;98331.81;;;9.70;74.62
52591;BME280;38483;42.620;25.394;2022-10-28T03:38:23;98322.38;;;9.67;75.47
52591;BME280;38483;42.620;25.394;2022-10-28T03:40:50;98320.69;;;9.66;75.33
52591;BME280;38483;42.620;25.394;2022-10-28T03:43:17;98330.22;;;9.63;75.28
52591;BME280;38483;42.620;25.394;2022-10-28T03:45:44;98330.09;;;9.69;75.13
52591;BME280;38483;42.620;25.394;2022-10-28T03:48:11;98329.13;;;9.74;75.20
52591;BME280;38483;42.620;25.394;2022-10-28T03:50:38;98329.94;;;9.75;75.49
52591;BME280;38483;42.620;25.394;2022-10-28T03:53:04;98332.72;;;9.67;75.22
52591;BME280;38483;42.620;25.394;2022-10-28T03:55:31;98328.25;;;9.74;74.91
52591;BME280;38483;42.620;25.394;2022-10-28T03:58:02;98331.56;;;9.79;74.74
52591;BME280;38483;42.620;25.394;2022-10-28T04:00:29;98332.09;;;9.95;74.66
52591;BME280;38483;42.620;25.394;2022-10-28T04:02:56;98337.78;;;10.12;73.52
52591;BME280;38483;42.620;25.394;2022-10-28T04:05:23;98326.47;;;10.16;72.90
52591;BME280;38483;42.620;25.394;2022-10-28T04:07:50;98325.53;;;10.18;72.73
52591;BME280;38483;42.620;25.394;2022-10-28T04:10:18;98316.59;;;9.95;73.65
52591;BME280;38483;42.620;25.394;2022-10-28T04:12:45;98327.75;;;9.97;73.27
52591;BME280;38483;42.620;25.394;2022-10-28T04:15:12;98325.94;;;10.00;73.39
52591;BME280;38483;42.620;25.394;2022-10-28T04:17:39;98327.00;;;9.92;73.45
52591;BME280;38483;42.620;25.394;2022-10-28T04:20:06;98324.13;;;10.04;72.65
52591;BME280;38483;42.620;25.394;2022-10-28T04:22:33;98321.41;;;10.11;72.63
52591;BME280;38483;42.620;25.394;2022-10-28T04:25:00;98326.53;;;10.13;72.14
52591;BME280;38483;42.620;25.394;2022-10-28T04:27:28;98328.09;;;10.20;71.81
52591;BME280;38483;42.620;25.394;2022-10-28T04:29:55;98324.84;;;10.12;71.75
52591;BME280;38483;42.620;25.394;2022-10-28T04:32:22;98269.47;;;9.80;71.55
52591;BME280;38483;42.620;25.394;2022-10-28T04:34:49;98331.09;;;10.00;71.29
52591;BME280;38483;42.620;25.394;2022-10-28T04:37:16;98319.69;;;9.72;72.44
52591;BME280;38483;42.620;25.394;2022-10-28T04:39:46;98330.75;;;9.77;72.52
52591;BME280;38483;42.620;25.394;2022-10-28T04:42:13;98331.91;;;9.65;73.33
52591;BME280;38483;42.620;25.394;2022-10-28T04:44:41;98320.31;;;9.43;73.23
52591;BME280;38483;42.620;25.394;2022-10-28T04:47:08;98316.72;;;9.49;73.40
52591;BME280;38483;42.620;25.394;2022-10-28T04:49:35;98332.13;;;9.55;73.79
52591;BME280;38483;42.620;25.394;2022-10-28T04:52:04;98325.22;;;9.55;74.13
52591;BME280;38483;42.620;25.394;2022-10-28T04:54:31;98327.25;;;9.79;73.00
52591;BME280;38483;42.620;25.394;2022-10-28T04:56:58;98327.81;;;9.94;72.48
52591;BME280;38483;42.620;25.394;2022-10-28T04:59:25;98339.81;;;9.96;71.85
52591;BME280;38483;42.620;25.394;2022-10-28T05:01:52;98332.63;;;10.10;71.15
52591;BME280;38483;42.620;25.394;2022-10-28T05:04:19;98336.53;;;10.28;70.68
52591;BME280;38483;42.620;25.394;2022-10-28T05:06:46;98328.25;;;10.14;71.13
52591;BME280;38483;42.620;25.394;2022-10-28T05:09:13;98323.09;;;10.12;71.16
52591;BME280;38483;42.620;25.394;2022-10-28T05:11:40;98336.59;;;10.25;70.76
52591;BME280;38483;42.620;25.394;2022-10-28T05:14:07;98338.00;;;10.38;70.36
52591;BME280;38483;42.620;25.394;2022-10-28T05:16:34;98336.00;;;10.49;69.45
52591;BME280;38483;42.620;25.394;2022-10-28T05:19:01;98343.03;;;10.44;69.97
52591;BME280;38483;42.620;25.394;2022-10-28T05:21:28;98343.91;;;10.44;69.52
52591;BME280;38483;42.620;25.394;2022-10-28T05:23:55;98342.69;;;10.57;69.52
52591;BME280;38483;42.620;25.394;2022-10-28T05:26:22;98351.00;;;10.70;69.05
52591;BME280;38483;42.620;25.394;2022-10-28T05:28:49;98351.34;;;10.90;68.42
52591;BME280;38483;42.620;25.394;2022-10-28T05:31:17;98355.81;;;10.85;68.63
52591;BME280;38483;42.620;25.394;2022-10-28T05:33:43;98341.78;;;10.92;68.37
52591;BME280;38483;42.620;25.394;2022-10-28T05:36:10;98351.69;;;11.10;68.22
52591;BME280;38483;42.620;25.394;2022-10-28T05:38:37;98344.91;;;11.05;68.13
52591;BME280;38483;42.620;25.394;2022-10-28T05:41:05;98353.53;;;11.05;67.83
52591;BME280;38483;42.620;25.394;2022-10-28T05:43:32;98349.06;;;10.78;68.80
52591;BME280;38483;42.620;25.394;2022-10-28T05:45:59;98350.84;;;10.42;70.95
52591;BME280;38483;42.620;25.394;2022-10-28T05:48:28;98356.28;;;10.32;71.80
52591;BME280;38483;42.620;25.394;2022-10-28T05:50:55;98359.75;;;10.32;72.28
52591;BME280;38483;42.620;25.394;2022-10-28T05:53:22;98362.47;;;10.25;72.97
52591;BME280;38483;42.620;25.394;2022-10-28T05:55:49;98366.47;;;10.39;73.21
52591;BME280;38483;42.620;25.394;2022-10-28T05:58:15;98362.13;;;10.40;73.07
52591;BME280;38483;42.620;25.394;2022-10-28T06:00:42;98370.63;;;10.45;73.89
52591;BME280;38483;42.620;25.394;2022-10-28T06:03:10;98366.50;;;10.73;73.46
52591;BME280;38483;42.620;25.394;2022-10-28T06:05:41;98368.63;;;10.56;72.26
52591;BME280;38483;42.620;25.394;2022-10-28T06:08:12;98369.00;;;10.76;71.70
52591;BME280;38483;42.620;25.394;2022-10-28T06:10:40;98366.88;;;10.58;72.47
52591;BME280;38483;42.620;25.394;2022-10-28T06:13:08;98373.66;;;10.62;72.12
52591;BME280;38483;42.620;25.394;2022-10-28T06:15:35;98370.72;;;10.77;71.72
52591;BME280;38483;42.620;25.394;2022-10-28T06:18:02;98367.69;;;10.92;71.39
52591;BME280;38483;42.620;25.394;2022-10-28T06:20:29;98376.66;;;11.13;70.94
52591;BME280;38483;42.620;25.394;2022-10-28T06:22:56;98370.22;;;11.27;70.17
52591;BME280;38483;42.620;25.394;2022-10-28T06:25:24;98378.50;;;11.41;70.35
52591;BME280;38483;42.620;25.394;2022-10-28T06:27:58;98383.41;;;11.51;69.71
52591;BME280;38483;42.620;25.394;2022-10-28T06:30:28;98379.63;;;11.62;69.24
52591;BME280;38483;42.620;25.394;2022-10-28T06:32:55;98374.06;;;11.76;68.43
52591;BME280;38483;42.620;25.394;2022-10-28T06:35:23;98375.41;;;11.89;68.29
52591;BME280;38483;42.620;25.394;2022-10-28T06:37:54;98379.94;;;11.82;68.23
52591;BME280;38483;42.620;25.394;2022-10-28T06:40:23;98383.03;;;11.93;68.05
52591;BME280;38483;42.620;25.394;2022-10-28T06:43:02;98387.13;;;12.02;67.80
52591;BME280;38483;42.620;25.394;2022-10-28T06:45:31;98378.94;;;12.14;67.92
52591;BME280;38483;42.620;25.394;2022-10-28T06:48:00;98384.75;;;12.22;67.31
52591;BME280;38483;42.620;25.394;2022-10-28T06:50:28;98378.25;;;12.37;67.17
52591;BME280;38483;42.620;25.394;2022-10-28T06:52:56;98379.16;;;12.62;66.30
52591;BME280;38483;42.620;25.394;2022-10-28T06:55:25;98382.66;;;12.87;65.87
52591;BME280;38483;42.620;25.394;2022-10-28T06:57:52;98380.97;;;13.12;64.57
52591;BME280;38483;42.620;25.394;2022-10-28T07:00:20;98382.44;;;13.19;64.41
52591;BME280;38483;42.620;25.394;2022-10-28T07:02:52;98382.66;;;13.13;64.68
52591;BME280;38483;42.620;25.394;2022-10-28T07:05:20;98377.06;;;13.24;64.42
52591;BME280;38483;42.620;25.394;2022-10-28T07:07:47;98373.81;;;13.42;64.00
52591;BME280;38483;42.620;25.394;2022-10-28T07:10:14;98372.66;;;13.50;63.96
52591;BME280;38483;42.620;25.394;2022-10-28T07:12:41;98364.97;;;13.47;63.87
52591;BME280;38483;42.620;25.394;2022-10-28T07:15:08;98365.34;;;13.83;63.04
52591;BME280;38483;42.620;25.394;2022-10-28T07:17:35;98365.50;;;14.02;62.18
52591;BME280;38483;42.620;25.394;2022-10-28T07:20:03;98361.03;;;14.05;61.98
52591;BME280;38483;42.620;25.394;2022-10-28T07:22:30;98370.63;;;14.26;61.49
52591;BME280;38483;42.620;25.394;2022-10-28T07:24:57;98376.84;;;14.45;60.91
52591;BME280;38483;42.620;25.394;2022-10-28T07:27:24;98367.19;;;14.47;61.12
52591;BME280;38483;42.620;25.394;2022-10-28T07:29:50;98353.66;;;14.59;60.78
52591;BME280;38483;42.620;25.394;2022-10-28T07:32:17;98364.78;;;14.85;60.44
52591;BME280;38483;42.620;25.394;2022-10-28T07:34:44;98360.88;;;14.95;60.00
52591;BME280;38483;42.620;25.394;2022-10-28T07:37:11;98363.56;;;15.13;59.78
52591;BME280;38483;42.620;25.394;2022-10-28T07:39:38;98365.44;;;15.30;59.46
52591;BME280;38483;42.620;25.394;2022-10-28T07:42:05;98357.03;;;15.43;59.01
52591;BME280;38483;42.620;25.394;2022-10-28T07:44:32;98362.63;;;15.55;58.48
52591;BME280;38483;42.620;25.394;2022-10-28T07:46:59;98366.91;;;15.76;58.27
52591;BME280;38483;42.620;25.394;2022-10-28T07:49:26;98351.06;;;15.79;58.30
52591;BME280;38483;42.620;25.394;2022-10-28T07:51:53;98359.69;;;15.99;57.94
52591;BME280;38483;42.620;25.394;2022-10-28T07:54:20;98352.91;;;16.14;57.15
52591;BME280;38483;42.620;25.394;2022-10-28T07:56:47;98340.75;;;16.32;56.68
52591;BME280;38483;42.620;25.394;2022-10-28T07:59:14;98337.28;;;16.50;56.26
52591;BME280;38483;42.620;25.394;2022-10-28T08:01:41;98354.75;;;16.66;56.31
52591;BME280;38483;42.620;25.394;2022-10-28T08:04:10;98327.91;;;16.80;55.31
52591;BME280;38483;42.620;25.394;2022-10-28T08:06:37;98348.53;;;17.03;54.80
52591;BME280;38483;42.620;25.394;2022-10-28T08:09:04;98349.94;;;17.10;54.58
52591;BME280;38483;42.620;25.394;2022-10-28T08:11:34;98324.66;;;16.92;54.52
52591;BME280;38483;42.620;25.394;2022-10-28T08:14:01;98346.47;;;17.09;54.54
52591;BME280;38483;42.620;25.394;2022-10-28T08:16:28;98340.84;;;17.00;54.42
52591;BME280;38483;42.620;25.394;2022-10-28T08:18:55;98350.69;;;17.12;54.22
52591;BME280;38483;42.620;25.394;2022-10-28T08:21:22;98351.53;;;17.13;54.49
52591;BME280;38483;42.620;25.394;2022-10-28T08:23:50;98338.75;;;17.24;53.51
52591;BME280;38483;42.620;25.394;2022-10-28T08:26:17;98343.25;;;17.37;53.30
52591;BME280;38483;42.620;25.394;2022-10-28T08:28:44;98340.16;;;17.46;52.92
52591;BME280;38483;42.620;25.394;2022-10-28T08:31:10;98340.72;;;17.53;52.67
52591;BME280;38483;42.620;25.394;2022-10-28T08:33:40;98341.06;;;17.62;52.04
52591;BME280;38483;42.620;25.394;2022-10-28T08:36:10;98345.22;;;17.66;51.30
52591;BME280;38483;42.620;25.394;2022-10-28T08:38:37;98341.50;;;17.70;50.58
52591;BME280;38483;42.620;25.394;2022-10-28T08:41:39;98344.31;;;17.67;50.98
52591;BME280;38483;42.620;25.394;2022-10-28T08:47:06;98345.09;;;17.85;50.66
52591;BME280;38483;42.620;25.394;2022-10-28T08:49:38;98332.00;;;18.01;48.85
52591;BME280;38483;42.620;25.394;2022-10-28T08:54:54;98339.44;;;18.39;47.64
52591;BME280;38483;42.620;25.394;2022-10-28T08:57:57;98335.97;;;18.54;46.40
52591;BME280;38483;42.620;25.394;2022-10-28T09:00:29;98336.28;;;18.64;46.45
52591;BME280;38483;42.620;25.394;2022-10-28T09:05:40;98317.94;;;18.33;46.34
52591;BME280;38483;42.620;25.394;2022-10-28T09:08:21;98321.81;;;18.57;46.25
52591;BME280;38483;42.620;25.394;2022-10-28T09:16:11;98316.91;;;19.10;44.88
52591;BME280;38483;42.620;25.394;2022-10-28T09:18:51;98318.25;;;19.17;44.37
52591;BME280;38483;42.620;25.394;2022-10-28T09:21:24;98320.75;;;19.34;44.35
52591;BME280;38483;42.620;25.394;2022-10-28T09:23:57;98315.75;;;19.44;44.77
52591;BME280;38483;42.620;25.394;2022-10-28T09:29:18;98313.13;;;19.58;43.37
52591;BME280;38483;42.620;25.394;2022-10-28T09:31:54;98299.91;;;19.60;43.35
52591;BME280;38483;42.620;25.394;2022-10-28T09:37:14;98287.53;;;19.62;43.26
52591;BME280;38483;42.620;25.394;2022-10-28T09:39:46;98273.56;;;19.47;43.90
52591;BME280;38483;42.620;25.394;2022-10-28T09:42:22;98279.53;;;19.63;43.30
52591;BME280;38483;42.620;25.394;2022-10-28T09:44:56;98280.25;;;19.79;42.98
52591;BME280;38483;42.620;25.394;2022-10-28T09:47:29;98286.00;;;19.72;42.93
52591;BME280;38483;42.620;25.394;2022-10-28T09:49:59;98264.41;;;19.67;42.78
52591;BME280;38483;42.620;25.394;2022-10-28T09:52:34;98262.34;;;19.72;42.37
52591;BME280;38483;42.620;25.394;2022-10-28T09:55:07;98270.03;;;19.75;42.83
52591;BME280;38483;42.620;25.394;2022-10-28T09:57:41;98253.88;;;19.81;42.47
52591;BME280;38483;42.620;25.394;2022-10-28T10:00:14;98260.94;;;19.66;42.44
52591;BME280;38483;42.620;25.394;2022-10-28T10:02:42;98265.50;;;19.77;42.85
52591;BME280;38483;42.620;25.394;2022-10-28T10:05:19;98261.34;;;20.01;41.90
52591;BME280;38483;42.620;25.394;2022-10-28T10:07:50;98255.72;;;19.93;41.99
52591;BME280;38483;42.620;25.394;2022-10-28T10:10:48;98254.56;;;20.11;41.87
52591;BME280;38483;42.620;25.394;2022-10-28T10:13:19;98255.81;;;20.18;42.05
52591;BME280;38483;42.620;25.394;2022-10-28T10:15:51;98246.25;;;20.31;41.62
52591;BME280;38483;42.620;25.394;2022-10-28T10:18:26;98250.28;;;20.49;40.71
52591;BME280;38483;42.620;25.394;2022-10-28T10:20:56;98247.81;;;20.34;40.77
52591;BME280;38483;42.620;25.394;2022-10-28T10:23:32;98243.91;;;20.26;41.18
52591;BME280;38483;42.620;25.394;2022-10-28T10:26:10;98237.63;;;20.42;40.86
52591;BME280;38483;42.620;25.394;2022-10-28T10:28:45;98245.91;;;20.62;40.36
52591;BME280;38483;42.620;25.394;2022-10-28T10:31:21;98252.41;;;20.69;40.19
52591;BME280;38483;42.620;25.394;2022-10-28T10:33:51;98245.06;;;20.74;40.21
52591;BME280;38483;42.620;25.394;2022-10-28T10:36:20;98245.50;;;20.68;40.06
52591;BME280;38483;42.620;25.394;2022-10-28T10:38:51;98234.31;;;20.77;40.03
52591;BME280;38483;42.620;25.394;2022-10-28T10:41:41;98241.91;;;20.82;40.01
52591;BME280;38483;42.620;25.394;2022-10-28T10:49:33;98223.91;;;20.88;39.74
52591;BME280;38483;42.620;25.394;2022-10-28T10:52:05;98210.53;;;20.91;39.63
52591;BME280;38483;42.620;25.394;2022-10-28T10:54:35;98217.91;;;20.86;39.86
52591;BME280;38483;42.620;25.394;2022-10-28T10:57:15;98206.31;;;20.89;39.40
52591;BME280;38483;42.620;25.394;2022-10-28T10:59:47;98204.53;;;21.02;39.27
52591;BME280;38483;42.620;25.394;2022-10-28T11:02:29;98212.06;;;21.08;38.83
52591;BME280;38483;42.620;25.394;2022-10-28T11:05:01;98205.94;;;21.08;38.86
52591;BME280;38483;42.620;25.394;2022-10-28T11:07:30;98196.56;;;21.03;38.89
52591;BME280;38483;42.620;25.394;2022-10-28T11:09:58;98187.59;;;21.06;39.09
52591;BME280;38483;42.620;25.394;2022-10-28T11:15:00;98198.63;;;20.98;39.44
52591;BME280;38483;42.620;25.394;2022-10-28T11:17:31;98200.66;;;21.08;39.00
52591;BME280;38483;42.620;25.394;2022-10-28T11:20:21;98184.75;;;21.09;39.41
52591;BME280;38483;42.620;25.394;2022-10-28T11:23:08;98200.00;;;21.29;38.48
52591;BME280;38483;42.620;25.394;2022-10-28T11:25:43;98186.84;;;21.17;39.29
52591;BME280;38483;42.620;25.394;2022-10-28T11:44:44;98169.34;;;20.78;39.33
52591;BME280;38483;42.620;25.394;2022-10-28T11:50:13;98160.28;;;20.94;39.57
52591;BME280;38483;42.620;25.394;2022-10-28T11:55:26;98150.91;;;21.16;38.81
52591;BME280;38483;42.620;25.394;2022-10-28T12:03:46;98151.53;;;21.06;38.18
52591;BME280;38483;42.620;25.394;2022-10-28T12:12:14;98144.97;;;21.25;38.30
52591;BME280;38483;42.620;25.394;2022-10-28T12:17:39;98129.03;;;21.39;38.34
52591;BME280;38483;42.620;25.394;2022-10-28T12:20:19;98126.00;;;21.32;38.48
52591;BME280;38483;42.620;25.394;2022-10-28T12:22:58;98126.06;;;21.43;38.11
52591;BME280;38483;42.620;25.394;2022-10-28T12:25:28;98131.97;;;21.47;38.09
52591;BME280;38483;42.620;25.394;2022-10-28T12:27:59;98127.44;;;21.49;38.01
52591;BME280;38483;42.620;25.394;2022-10-28T12:30:30;98124.59;;;21.39;37.86
52591;BME280;38483;42.620;25.394;2022-10-28T12:33:19;98123.66;;;21.40;37.76
52591;BME280;38483;42.620;25.394;2022-10-28T12:38:55;98113.13;;;21.40;37.95
52591;BME280;38483;42.620;25.394;2022-10-28T12:41:44;98109.91;;;21.48;38.08
52591;BME280;38483;42.620;25.394;2022-10-28T12:44:18;98098.16;;;21.41;38.13
52591;BME280;38483;42.620;25.394;2022-10-28T12:52:33;98103.16;;;21.20;38.09
52591;BME280;38483;42.620;25.394;2022-10-28T12:58:05;98103.72;;;20.87;38.93
52591;BME280;38483;42.620;25.394;2022-10-28T13:00:42;98114.66;;;20.81;38.80
52591;BME280;38483;42.620;25.394;2022-10-28T13:03:12;98107.72;;;20.93;38.61
52591;BME280;38483;42.620;25.394;2022-10-28T13:13:57;98101.34;;;21.21;38.23
52591;BME280;38483;42.620;25.394;2022-10-28T13:19:44;98105.34;;;21.26;37.96
52591;BME280;38483;42.620;25.394;2022-10-28T13:25:04;98089.16;;;20.94;38.27
52591;BME280;38483;42.620;25.394;2022-10-28T13:27:37;98096.88;;;20.97;38.44
52591;BME280;38483;42.620;25.394;2022-10-28T13:30:05;98091.06;;;20.92;39.01
52591;BME280;38483;42.620;25.394;2022-10-28T13:32:42;98096.75;;;20.86;38.97
52591;BME280;38483;42.620;25.394;2022-10-28T13:35:28;98099.41;;;20.61;39.38
52591;BME280;38483;42.620;25.394;2022-10-28T13:37:57;98101.00;;;20.76;39.68
52591;BME280;38483;42.620;25.394;2022-10-28T13:43:00;98089.72;;;20.87;39.50
52591;BME280;38483;42.620;25.394;2022-10-28T13:45:47;98096.56;;;20.89;39.32
52591;BME280;38483;42.620;25.394;2022-10-28T13:48:46;98096.13;;;20.95;39.15
52591;BME280;38483;42.620;25.394;2022-10-28T13:58:54;98089.91;;;20.96;39.56
52591;BME280;38483;42.620;25.394;2022-10-28T14:01:54;98088.13;;;20.84;39.54
52591;BME280;38483;42.620;25.394;2022-10-28T14:04:40;98081.88;;;21.11;39.71
52591;BME280;38483;42.620;25.394;2022-10-28T14:09:38;98086.97;;;21.37;39.81
52591;BME280;38483;42.620;25.394;2022-10-28T14:13:14;98097.63;;;21.36;39.01
52591;BME280;38483;42.620;25.394;2022-10-28T14:17:41;98091.97;;;21.53;39.00
52591;BME280;38483;42.620;25.394;2022-10-28T14:20:34;98100.63;;;21.55;38.11
52591;BME280;38483;42.620;25.394;2022-10-28T14:33:47;98100.75;;;20.92;39.02
52591;BME280;38483;42.620;25.394;2022-10-28T14:39:44;98106.25;;;20.76;39.30
52591;BME280;38483;42.620;25.394;2022-10-28T14:50:45;98107.72;;;20.30;39.07
52591;BME280;38483;42.620;25.394;2022-10-28T14:53:25;98120.13;;;20.28;39.14
52591;BME280;38483;42.620;25.394;2022-10-28T14:56:03;98113.72;;;20.32;39.09
52591;BME280;38483;42.620;25.394;2022-10-28T14:58:41;98116.63;;;20.15;39.09
52591;BME280;38483;42.620;25.394;2022-10-28T15:03:45;98125.38;;;19.89;40.01
52591;BME280;38483;42.620;25.394;2022-10-28T15:06:26;98115.50;;;19.80;40.01
52591;BME280;38483;42.620;25.394;2022-10-28T15:08:54;98118.00;;;19.81;40.17
52591;BME280;38483;42.620;25.394;2022-10-28T15:11:21;98113.22;;;19.61;40.50
52591;BME280;38483;42.620;25.394;2022-10-28T15:13:52;98110.44;;;19.50;40.62
52591;BME280;38483;42.620;25.394;2022-10-28T15:16:24;98125.72;;;19.43;40.98
52591;BME280;38483;42.620;25.394;2022-10-28T15:18:52;98114.88;;;19.35;41.05
52591;BME280;38483;42.620;25.394;2022-10-28T15:21:21;98119.22;;;19.22;41.18
52591;BME280;38483;42.620;25.394;2022-10-28T15:24:01;98120.13;;;19.21;41.74
52591;BME280;38483;42.620;25.394;2022-10-28T15:26:28;98124.84;;;19.16;41.81
52591;BME280;38483;42.620;25.394;2022-10-28T15:28:55;98130.38;;;19.12;41.70
52591;BME280;38483;42.620;25.394;2022-10-28T15:31:22;98129.16;;;19.03;41.72
52591;BME280;38483;42.620;25.394;2022-10-28T15:33:49;98136.09;;;18.90;42.28
52591;BME280;38483;42.620;25.394;2022-10-28T15:36:21;98120.09;;;18.81;42.53
52591;BME280;38483;42.620;25.394;2022-10-28T15:39:07;98132.75;;;18.74;42.74
52591;BME280;38483;42.620;25.394;2022-10-28T15:41:43;98135.75;;;18.68;43.06
52591;BME280;38483;42.620;25.394;2022-10-28T15:44:36;98143.88;;;18.63;43.52
52591;BME280;38483;42.620;25.394;2022-10-28T15:47:22;98135.91;;;18.51;44.39
52591;BME280;38483;42.620;25.394;2022-10-28T15:49:59;98142.28;;;18.61;44.17
52591;BME280;38483;42.620;25.394;2022-10-28T15:52:38;98131.19;;;18.42;45.00
52591;BME280;38483;42.620;25.394;2022-10-28T15:55:27;98130.25;;;18.43;45.71
52591;BME280;38483;42.620;25.394;2022-10-28T16:05:58;98137.03;;;18.47;46.10